ADDS METAR Data INFO
IDs: Format: Raw Decoded Include TAF

Data at: 0213 UTC 17 Aug 2018

PAII 170156Z AUTO 34003KT 5SM RA BR BKN041 OVC050 12/09 A3000 RMK AO2 RAB29 SLP162 P0008 T01170094
PAII 170103Z AUTO 29006KT 10SM FEW022 SCT027 OVC060 13/10 A3000 RMK AO2
PAII 170056Z AUTO 29006KT 10SM FEW022 BKN028 OVC060 13/10 A3000 RMK AO2 RAB42E54 SLP161 P0000 T01280100
PAII 170045Z AUTO 28004KT 10SM -RA SCT022 BKN028 OVC037 12/09 A3000 RMK AO2 RAB42 P0000
PAII 162356Z AUTO 30006KT 10SM SCT023 BKN045 OVC055 13/09 A3000 RMK AO2 RAE2259 SLP162 P0000 60000 T01330094 10139 20100 58001
PAII 162256Z AUTO 16006KT 10SM -RA FEW018 BKN035 OVC043 13/09 A3000 RMK AO2 RAB42 SLP163 P0000 T01330089
PAII 162253Z AUTO 19006KT 10SM -RA FEW018 BKN035 OVC043 13/09 A3000 RMK AO2 RAB42 P0000
PAII 162156Z AUTO VRB05KT 10SM BKN015 BKN020 OVC060 13/09 A3000 RMK AO2 RAE06 SLP163 P0000 T01280094
PAII 162147Z AUTO VRB05KT 10SM SCT015 BKN019 OVC035 13/09 A3000 RMK AO2 RAE06 P0000
PAII 162138Z AUTO 10005KT 7SM BKN013 BKN030 OVC060 13/09 A3000 RMK AO2 RAE06 P0000
PAII 162102Z AUTO VRB03KT 6SM -RA BR FEW007 BKN033 OVC050 12/10 A3000 RMK AO2 P0000
PAII 162056Z AUTO 11003KT 4SM -RA BR SCT010 BKN014 OVC035 11/10 A3000 RMK AO2 RAB50 SLP164 P0000 60000 T01110100 58001
PAII 162037Z AUTO 08004KT 6SM BR BKN010 OVC015 12/09 A3001 RMK AO2 CIG 007V013
PAII 161956Z AUTO 09005KT 10SM FEW004 BKN008 OVC035 11/09 A3001 RMK AO2 CIG 006V009 SLP165 T01060094
PAII 161929Z AUTO 09004KT 5SM BR BKN004 OVC022 10/09 A3001 RMK AO2
PAII 161917Z AUTO 09005KT 4SM BR BKN006 BKN010 OVC024 10/09 A3001 RMK AO2 CIG 004V007
PAII 161856Z AUTO 10006KT 6SM BR SCT006 OVC020 10/09 A3001 RMK AO2 SLP165 T01000094
PAII 161836Z AUTO 10005KT 10SM BKN006 BKN022 OVC034 11/09 A3000 RMK AO2 CIG 005V011
PAII 161815Z AUTO 10005KT 10SM SCT006 BKN023 OVC035 10/09 A3000 RMK AO2
PAII 161756Z AUTO 09004KT 10SM BKN023 OVC038 10/09 A3001 RMK AO2 RAB27E45 SLP165 P0000 60000 T01000089 10100 20072 52003
PAII 161656Z AUTO 08004KT 10SM OVC023 09/09 A3000 RMK AO2 SLP164 T00940089
PAII 161626Z AUTO 07003KT 10SM BKN027 OVC034 09/08 A3000 RMK AO2
PAII 161616Z AUTO 08003KT 10SM SCT022 SCT027 OVC032 09/08 A3000 RMK AO2
PAII 161456Z AUTO 00000KT 10SM BKN022 OVC028 08/08 A3000 RMK AO2 SLP162 T00830078 50001
PAII 161425Z AUTO 00000KT 10SM OVC028 08/08 A3000 RMK AO2
PAII 161356Z AUTO 00000KT 10SM OVC030 08/07 A3000 RMK AO2 SLP162 T00830072
PAII 161339Z AUTO 00000KT 10SM OVC030 08/07 A3000 RMK AO2
PAII 161256Z AUTO 00000KT 10SM OVC028 08/07 A3000 RMK AO2 SLP163 T00780072
PAII 161233Z AUTO 00000KT 10SM BKN028 OVC060 08/07 A3000 RMK AO2
PAII 161156Z AUTO 00000KT 10SM OVC060 07/07 A3000 RMK AO2 SLP161 70003 T00720072 10089 20056 51002
PAII 161056Z AUTO 00000KT 10SM OVC055 07/07 A2999 RMK AO2 SLP161 T00720072
PAII 160956Z AUTO 36003KT 10SM OVC060 08/07 A2999 RMK AO2 SLP161 T00780072
PAII 160856Z AUTO 00000KT 10SM CLR 07/06 A2999 RMK AO2 SLP159 T00670061 53002
PAII 160756Z AUTO 00000KT 10SM CLR 08/07 A2999 RMK AO2 SLP159 T00830072 401280083
PAII 160656Z AUTO 36003KT 10SM BKN100 09/07 A2998 RMK AO2 SLP157 T00890072
PAII 160556Z AUTO 31003KT 10SM CLR 09/07 A2998 RMK AO2 SLP157 T00890072 10122 20089 53006
PAII 160456Z AUTO 31005KT 10SM SCT042 11/08 A2997 RMK AO2 SLP152 T01060078
PAII 160356Z AUTO 31005KT 10SM FEW048 12/08 A2996 RMK AO2 SLP150 T01170078
PAII 160256Z AUTO 29004KT 10SM BKN033 OVC048 11/08 A2997 RMK AO2 SLP151 T01110078 56002
PAII 160226Z AUTO 30004KT 10SM OVC032 11/08 A2997 RMK AO2
PAII 160156Z AUTO 28005KT 10SM BKN028 OVC034 12/08 A2997 RMK AO2 SLP152 T01170083
PAII 160056Z AUTO 29008KT 10SM BKN025 OVC034 12/08 A2997 RMK AO2 SLP152 T01220083
PAII 152356Z AUTO 28007KT 10SM BKN023 OVC036 12/08 A2997 RMK AO2 RAE02 SLP153 P0000 60000 T01220083 10128 20100 58003
PAII 152256Z AUTO 27006KT 10SM -RA BKN019 OVC038 13/08 A2998 RMK AO2 RAB23 SLP155 P0000 T01280083
PAII 152223Z AUTO 27006KT 10SM -RA BKN017 BKN027 OVC032 12/09 A2998 RMK AO2 RAB23 P0000
PAII 152156Z AUTO 25006KT 10SM FEW011 SCT030 BKN037 12/08 A2998 RMK AO2 RAB11E35 SLP157 P0000 T01170083
PAII 152151Z AUTO 25008KT 10SM FEW011 SCT024 BKN033 12/09 A2998 RMK AO2 RAB11E35 P0000
PAII 152016Z AUTO 19006KT 10SM SCT012 BKN033 OVC050 12/09 A2998 RMK AO2 RAE15 P0000
PAII 151956Z AUTO 19006KT 10SM -RA BKN010 BKN013 OVC055 11/09 A2998 RMK AO2 SLP155 P0000 T01110094
PAII 151927Z AUTO 20007KT 10SM -RA BKN006 BKN013 OVC050 11/09 A2998 RMK AO2 CIG 005V010 P0000
PAII 151913Z AUTO 19007KT 10SM -RA SCT006 OVC050 11/09 A2998 RMK AO2 P0000
PAII 151856Z AUTO 18007KT 10SM -RA FEW014 OVC048 10/09 A2998 RMK AO2 RAB27 SLP156 P0000 T01000094
PAII 151756Z AUTO 20007KT 10SM FEW005 BKN048 OVC070 10/09 A2998 RMK AO2 SLP154 60003 T01000089 10100 20089 53001
PAII 151746Z AUTO 20006KT 10SM SCT005 BKN048 OVC070 10/09 A2998 RMK AO2
PAII 151656Z AUTO 19006KT 10SM FEW019 SCT025 OVC033 09/09 A2997 RMK AO2 RAB29E47 SLP154 P0000 T00940089
PAII 151641Z AUTO 19005KT 10SM -RA FEW019 BKN027 OVC065 09/09 A2997 RMK AO2 RAB29 P0000
PAII 151556Z AUTO 19003KT 7SM FEW055 BKN070 OVC095 09/08 A2997 RMK AO2 RAE31 SLP152 P0000 T00890083
PAII 151536Z AUTO 19004KT 10SM FEW013 BKN060 OVC090 09/08 A2997 RMK AO2 RAE31 P0000
PAII 151529Z AUTO 19004KT 10SM -RA FEW013 BKN023 OVC060 09/08 A2997 RMK AO2 P0000
PAII 151519Z AUTO 20004KT 10SM -RA FEW013 SCT021 OVC060 09/08 A2997 RMK AO2 P0000
PAII 151508Z AUTO 20004KT 10SM -RA SCT013 BKN021 OVC060 09/08 A2997 RMK AO2 P0000
PAII 151456Z AUTO 20004KT 10SM -RA FEW013 BKN060 OVC070 09/08 A2997 RMK AO2 SLP153 P0000 60003 T00890083 58004